sensor_id;sensor_type;location;lat;lon;timestamp;P1;durP1;ratioP1;P2;durP2;ratioP2
35444;SDS011;21562;49.476;6.086;2023-06-04T00:00:05;6.00;;;3.38;;
35444;SDS011;21562;49.476;6.086;2023-06-04T00:02:32;8.02;;;2.95;;
35444;SDS011;21562;49.476;6.086;2023-06-04T00:04:57;6.97;;;2.60;;
35444;SDS011;21562;49.476;6.086;2023-06-04T00:07:23;5.53;;;2.65;;
35444;SDS011;21562;49.476;6.086;2023-06-04T00:09:49;7.35;;;3.10;;
35444;SDS011;21562;49.476;6.086;2023-06-04T00:12:15;6.45;;;3.10;;
35444;SDS011;21562;49.476;6.086;2023-06-04T00:14:41;4.00;;;2.45;;
35444;SDS011;21562;49.476;6.086;2023-06-04T00:17:08;5.25;;;2.55;;
35444;SDS011;21562;49.476;6.086;2023-06-04T00:19:34;4.18;;;2.72;;
35444;SDS011;21562;49.476;6.086;2023-06-04T00:22:00;11.40;;;4.65;;
35444;SDS011;21562;49.476;6.086;2023-06-04T00:24:26;17.73;;;6.78;;
35444;SDS011;21562;49.476;6.086;2023-06-04T00:26:52;12.05;;;5.70;;
35444;SDS011;21562;49.476;6.086;2023-06-04T00:29:17;8.25;;;3.90;;
35444;SDS011;21562;49.476;6.086;2023-06-04T00:31:43;7.57;;;3.85;;
35444;SDS011;21562;49.476;6.086;2023-06-04T00:34:09;9.93;;;4.22;;
35444;SDS011;21562;49.476;6.086;2023-06-04T00:36:35;8.93;;;3.75;;
35444;SDS011;21562;49.476;6.086;2023-06-04T00:39:01;9.20;;;3.13;;
35444;SDS011;21562;49.476;6.086;2023-06-04T00:41:27;4.15;;;2.42;;
35444;SDS011;21562;49.476;6.086;2023-06-04T00:43:53;4.93;;;2.40;;
35444;SDS011;21562;49.476;6.086;2023-06-04T00:46:25;5.55;;;2.40;;
35444;SDS011;21562;49.476;6.086;2023-06-04T00:48:51;4.30;;;1.80;;
35444;SDS011;21562;49.476;6.086;2023-06-04T00:51:18;6.00;;;2.30;;
35444;SDS011;21562;49.476;6.086;2023-06-04T00:53:45;4.22;;;2.35;;
35444;SDS011;21562;49.476;6.086;2023-06-04T00:56:12;8.98;;;2.40;;
35444;SDS011;21562;49.476;6.086;2023-06-04T00:58:38;5.18;;;2.08;;
35444;SDS011;21562;49.476;6.086;2023-06-04T01:01:05;4.25;;;2.30;;
35444;SDS011;21562;49.476;6.086;2023-06-04T01:03:35;3.60;;;2.00;;
35444;SDS011;21562;49.476;6.086;2023-06-04T01:06:13;5.18;;;1.67;;
35444;SDS011;21562;49.476;6.086;2023-06-04T01:08:58;10.77;;;2.00;;
35444;SDS011;21562;49.476;6.086;2023-06-04T01:11:35;2.65;;;1.77;;
35444;SDS011;21562;49.476;6.086;2023-06-04T01:14:04;5.53;;;2.20;;
35444;SDS011;21562;49.476;6.086;2023-06-04T01:16:39;3.50;;;1.95;;
35444;SDS011;21562;49.476;6.086;2023-06-04T01:22:17;3.80;;;1.70;;
35444;SDS011;21562;49.476;6.086;2023-06-04T01:25:20;3.05;;;1.83;;
35444;SDS011;21562;49.476;6.086;2023-06-04T01:27:51;4.03;;;1.70;;
35444;SDS011;21562;49.476;6.086;2023-06-04T01:30:28;3.25;;;2.22;;
35444;SDS011;21562;49.476;6.086;2023-06-04T01:32:56;5.93;;;1.77;;
35444;SDS011;21562;49.476;6.086;2023-06-04T01:35:23;5.45;;;2.28;;
35444;SDS011;21562;49.476;6.086;2023-06-04T01:37:50;9.00;;;2.80;;
35444;SDS011;21562;49.476;6.086;2023-06-04T01:40:16;3.47;;;2.20;;
35444;SDS011;21562;49.476;6.086;2023-06-04T01:42:42;6.60;;;2.35;;
35444;SDS011;21562;49.476;6.086;2023-06-04T01:45:08;4.80;;;2.28;;
35444;SDS011;21562;49.476;6.086;2023-06-04T01:47:34;6.85;;;2.03;;
35444;SDS011;21562;49.476;6.086;2023-06-04T01:50:00;4.50;;;1.85;;
35444;SDS011;21562;49.476;6.086;2023-06-04T01:52:27;3.55;;;1.98;;
35444;SDS011;21562;49.476;6.086;2023-06-04T01:54:52;6.53;;;2.22;;
35444;SDS011;21562;49.476;6.086;2023-06-04T01:57:19;4.57;;;1.70;;
35444;SDS011;21562;49.476;6.086;2023-06-04T01:59:45;5.05;;;2.08;;
35444;SDS011;21562;49.476;6.086;2023-06-04T02:02:11;4.38;;;1.83;;
35444;SDS011;21562;49.476;6.086;2023-06-04T02:04:38;3.60;;;1.52;;
35444;SDS011;21562;49.476;6.086;2023-06-04T02:07:08;3.78;;;1.60;;
35444;SDS011;21562;49.476;6.086;2023-06-04T02:09:34;2.97;;;1.70;;
35444;SDS011;21562;49.476;6.086;2023-06-04T02:12:01;5.22;;;1.73;;
35444;SDS011;21562;49.476;6.086;2023-06-04T02:14:27;5.47;;;1.67;;
35444;SDS011;21562;49.476;6.086;2023-06-04T02:16:52;4.00;;;1.40;;
35444;SDS011;21562;49.476;6.086;2023-06-04T02:19:19;2.95;;;1.67;;
35444;SDS011;21562;49.476;6.086;2023-06-04T02:21:45;4.75;;;1.83;;
35444;SDS011;21562;49.476;6.086;2023-06-04T02:24:11;3.88;;;1.40;;
35444;SDS011;21562;49.476;6.086;2023-06-04T02:26:37;4.88;;;1.80;;
35444;SDS011;21562;49.476;6.086;2023-06-04T02:29:03;2.85;;;1.88;;
35444;SDS011;21562;49.476;6.086;2023-06-04T02:31:29;2.42;;;1.20;;
35444;SDS011;21562;49.476;6.086;2023-06-04T02:33:55;1.67;;;1.13;;
35444;SDS011;21562;49.476;6.086;2023-06-04T02:36:21;3.60;;;1.40;;
35444;SDS011;21562;49.476;6.086;2023-06-04T02:38:47;2.88;;;1.65;;
35444;SDS011;21562;49.476;6.086;2023-06-04T02:41:12;3.13;;;1.50;;
35444;SDS011;21562;49.476;6.086;2023-06-04T02:43:38;3.40;;;1.50;;
35444;SDS011;21562;49.476;6.086;2023-06-04T02:46:04;9.73;;;1.63;;
35444;SDS011;21562;49.476;6.086;2023-06-04T02:48:31;6.65;;;1.70;;
35444;SDS011;21562;49.476;6.086;2023-06-04T02:50:56;2.58;;;1.38;;
35444;SDS011;21562;49.476;6.086;2023-06-04T02:53:22;4.45;;;2.28;;
35444;SDS011;21562;49.476;6.086;2023-06-04T02:55:48;5.55;;;1.80;;
35444;SDS011;21562;49.476;6.086;2023-06-04T02:58:15;2.60;;;1.52;;
35444;SDS011;21562;49.476;6.086;2023-06-04T03:00:41;3.25;;;1.40;;
35444;SDS011;21562;49.476;6.086;2023-06-04T03:03:07;2.80;;;1.40;;
35444;SDS011;21562;49.476;6.086;2023-06-04T03:05:32;2.42;;;1.30;;
35444;SDS011;21562;49.476;6.086;2023-06-04T03:08:00;4.50;;;1.50;;
35444;SDS011;21562;49.476;6.086;2023-06-04T03:10:27;2.35;;;1.23;;
35444;SDS011;21562;49.476;6.086;2023-06-04T03:12:52;4.35;;;1.40;;
35444;SDS011;21562;49.476;6.086;2023-06-04T03:15:18;5.25;;;1.60;;
35444;SDS011;21562;49.476;6.086;2023-06-04T03:17:44;2.60;;;1.13;;
35444;SDS011;21562;49.476;6.086;2023-06-04T03:20:10;4.93;;;1.20;;
35444;SDS011;21562;49.476;6.086;2023-06-04T03:22:35;4.05;;;1.67;;
35444;SDS011;21562;49.476;6.086;2023-06-04T03:25:02;3.28;;;1.30;;
35444;SDS011;21562;49.476;6.086;2023-06-04T03:27:29;6.07;;;1.30;;
35444;SDS011;21562;49.476;6.086;2023-06-04T03:29:56;5.60;;;1.40;;
35444;SDS011;21562;49.476;6.086;2023-06-04T03:32:22;3.28;;;1.38;;
35444;SDS011;21562;49.476;6.086;2023-06-04T03:34:48;3.50;;;1.77;;
35444;SDS011;21562;49.476;6.086;2023-06-04T03:37:13;3.55;;;1.45;;
35444;SDS011;21562;49.476;6.086;2023-06-04T03:39:39;4.15;;;1.50;;
35444;SDS011;21562;49.476;6.086;2023-06-04T03:42:04;4.25;;;1.55;;
35444;SDS011;21562;49.476;6.086;2023-06-04T03:44:30;6.00;;;1.38;;
35444;SDS011;21562;49.476;6.086;2023-06-04T03:46:56;3.95;;;1.58;;
35444;SDS011;21562;49.476;6.086;2023-06-04T03:49:22;2.45;;;1.55;;
35444;SDS011;21562;49.476;6.086;2023-06-04T03:51:47;1.90;;;1.35;;
35444;SDS011;21562;49.476;6.086;2023-06-04T03:54:14;2.50;;;1.27;;
35444;SDS011;21562;49.476;6.086;2023-06-04T03:56:42;4.57;;;2.03;;
35444;SDS011;21562;49.476;6.086;2023-06-04T03:59:09;5.35;;;1.60;;
35444;SDS011;21562;49.476;6.086;2023-06-04T04:01:34;5.00;;;1.35;;
35444;SDS011;21562;49.476;6.086;2023-06-04T04:04:00;2.28;;;1.35;;
35444;SDS011;21562;49.476;6.086;2023-06-04T04:06:25;4.15;;;1.88;;
35444;SDS011;21562;49.476;6.086;2023-06-04T04:08:51;4.07;;;1.50;;
35444;SDS011;21562;49.476;6.086;2023-06-04T04:11:18;3.22;;;1.52;;
35444;SDS011;21562;49.476;6.086;2023-06-04T04:13:44;3.10;;;1.33;;
35444;SDS011;21562;49.476;6.086;2023-06-04T04:16:11;3.15;;;1.20;;
35444;SDS011;21562;49.476;6.086;2023-06-04T04:18:37;4.07;;;1.33;;
35444;SDS011;21562;49.476;6.086;2023-06-04T04:21:03;3.47;;;1.40;;
35444;SDS011;21562;49.476;6.086;2023-06-04T04:23:29;3.85;;;1.13;;
35444;SDS011;21562;49.476;6.086;2023-06-04T04:25:57;3.45;;;1.33;;
35444;SDS011;21562;49.476;6.086;2023-06-04T04:28:24;3.78;;;1.60;;
35444;SDS011;21562;49.476;6.086;2023-06-04T04:30:53;5.68;;;1.52;;
35444;SDS011;21562;49.476;6.086;2023-06-04T04:33:24;2.53;;;1.20;;
35444;SDS011;21562;49.476;6.086;2023-06-04T04:35:51;3.97;;;1.35;;
35444;SDS011;21562;49.476;6.086;2023-06-04T04:38:17;2.63;;;1.35;;
35444;SDS011;21562;49.476;6.086;2023-06-04T04:40:49;3.25;;;1.17;;
35444;SDS011;21562;49.476;6.086;2023-06-04T04:43:17;6.38;;;1.52;;
35444;SDS011;21562;49.476;6.086;2023-06-04T04:45:53;2.00;;;1.30;;
35444;SDS011;21562;49.476;6.086;2023-06-04T04:48:18;2.28;;;1.30;;
35444;SDS011;21562;49.476;6.086;2023-06-04T04:50:44;4.78;;;1.83;;
35444;SDS011;21562;49.476;6.086;2023-06-04T04:53:10;3.00;;;1.50;;
35444;SDS011;21562;49.476;6.086;2023-06-04T04:55:35;6.07;;;1.60;;
35444;SDS011;21562;49.476;6.086;2023-06-04T04:58:01;3.20;;;1.42;;
35444;SDS011;21562;49.476;6.086;2023-06-04T05:00:28;5.10;;;1.73;;
35444;SDS011;21562;49.476;6.086;2023-06-04T05:02:54;3.60;;;1.73;;
35444;SDS011;21562;49.476;6.086;2023-06-04T05:05:20;2.58;;;1.17;;
35444;SDS011;21562;49.476;6.086;2023-06-04T05:07:46;6.30;;;1.50;;
35444;SDS011;21562;49.476;6.086;2023-06-04T05:10:12;3.70;;;1.70;;
35444;SDS011;21562;49.476;6.086;2023-06-04T05:12:38;2.72;;;1.33;;
35444;SDS011;21562;49.476;6.086;2023-06-04T05:15:03;5.00;;;1.60;;
35444;SDS011;21562;49.476;6.086;2023-06-04T05:17:29;3.08;;;1.33;;
35444;SDS011;21562;49.476;6.086;2023-06-04T05:19:56;7.35;;;1.70;;
35444;SDS011;21562;49.476;6.086;2023-06-04T05:22:36;5.07;;;1.27;;
35444;SDS011;21562;49.476;6.086;2023-06-04T05:25:02;6.63;;;2.15;;
35444;SDS011;21562;49.476;6.086;2023-06-04T05:27:28;5.75;;;1.70;;
35444;SDS011;21562;49.476;6.086;2023-06-04T05:29:56;4.65;;;1.33;;
35444;SDS011;21562;49.476;6.086;2023-06-04T05:32:22;3.92;;;1.52;;
35444;SDS011;21562;49.476;6.086;2023-06-04T05:34:48;3.55;;;1.50;;
35444;SDS011;21562;49.476;6.086;2023-06-04T05:37:14;3.58;;;1.95;;
35444;SDS011;21562;49.476;6.086;2023-06-04T05:39:41;6.07;;;1.35;;
35444;SDS011;21562;49.476;6.086;2023-06-04T05:42:07;5.30;;;1.20;;
35444;SDS011;21562;49.476;6.086;2023-06-04T05:44:34;3.63;;;1.20;;
35444;SDS011;21562;49.476;6.086;2023-06-04T05:47:00;4.60;;;1.30;;
35444;SDS011;21562;49.476;6.086;2023-06-04T05:49:26;4.45;;;1.73;;
35444;SDS011;21562;49.476;6.086;2023-06-04T05:51:52;3.30;;;1.50;;
35444;SDS011;21562;49.476;6.086;2023-06-04T05:54:17;2.75;;;1.40;;
35444;SDS011;21562;49.476;6.086;2023-06-04T05:56:43;3.53;;;1.40;;
35444;SDS011;21562;49.476;6.086;2023-06-04T05:59:08;4.03;;;1.80;;
35444;SDS011;21562;49.476;6.086;2023-06-04T06:01:34;5.15;;;1.70;;
35444;SDS011;21562;49.476;6.086;2023-06-04T06:04:00;4.47;;;1.30;;
35444;SDS011;21562;49.476;6.086;2023-06-04T06:06:25;6.10;;;1.60;;
35444;SDS011;21562;49.476;6.086;2023-06-04T06:08:51;5.03;;;1.98;;
35444;SDS011;21562;49.476;6.086;2023-06-04T06:11:17;4.22;;;1.98;;
35444;SDS011;21562;49.476;6.086;2023-06-04T06:13:43;4.45;;;1.67;;
35444;SDS011;21562;49.476;6.086;2023-06-04T06:16:09;4.97;;;1.83;;
35444;SDS011;21562;49.476;6.086;2023-06-04T06:18:34;5.63;;;1.70;;
35444;SDS011;21562;49.476;6.086;2023-06-04T06:21:00;4.03;;;1.52;;
35444;SDS011;21562;49.476;6.086;2023-06-04T06:23:26;3.72;;;1.50;;
35444;SDS011;21562;49.476;6.086;2023-06-04T06:25:52;4.60;;;2.03;;
35444;SDS011;21562;49.476;6.086;2023-06-04T06:28:18;6.13;;;1.52;;
35444;SDS011;21562;49.476;6.086;2023-06-04T06:30:43;5.40;;;1.48;;
35444;SDS011;21562;49.476;6.086;2023-06-04T06:33:09;6.13;;;1.95;;
35444;SDS011;21562;49.476;6.086;2023-06-04T06:35:35;8.63;;;1.45;;
35444;SDS011;21562;49.476;6.086;2023-06-04T06:38:01;6.10;;;1.30;;
35444;SDS011;21562;49.476;6.086;2023-06-04T06:40:27;8.98;;;2.03;;
35444;SDS011;21562;49.476;6.086;2023-06-04T06:42:55;2.70;;;1.65;;
35444;SDS011;21562;49.476;6.086;2023-06-04T06:45:21;6.60;;;1.95;;
35444;SDS011;21562;49.476;6.086;2023-06-04T06:47:46;1.75;;;1.25;;
35444;SDS011;21562;49.476;6.086;2023-06-04T06:50:12;8.63;;;1.80;;
35444;SDS011;21562;49.476;6.086;2023-06-04T06:52:38;5.85;;;1.60;;
35444;SDS011;21562;49.476;6.086;2023-06-04T06:55:04;3.17;;;1.30;;
35444;SDS011;21562;49.476;6.086;2023-06-04T06:57:30;7.85;;;1.55;;
35444;SDS011;21562;49.476;6.086;2023-06-04T06:59:56;3.15;;;1.70;;
35444;SDS011;21562;49.476;6.086;2023-06-04T07:02:22;4.65;;;1.50;;
35444;SDS011;21562;49.476;6.086;2023-06-04T07:04:47;4.47;;;1.60;;
35444;SDS011;21562;49.476;6.086;2023-06-04T07:07:13;3.70;;;1.15;;
35444;SDS011;21562;49.476;6.086;2023-06-04T07:09:39;5.05;;;1.27;;
35444;SDS011;21562;49.476;6.086;2023-06-04T07:12:05;3.95;;;1.42;;
35444;SDS011;21562;49.476;6.086;2023-06-04T07:14:31;4.70;;;1.38;;
35444;SDS011;21562;49.476;6.086;2023-06-04T07:16:57;3.08;;;1.60;;
35444;SDS011;21562;49.476;6.086;2023-06-04T07:19:22;5.22;;;1.50;;
35444;SDS011;21562;49.476;6.086;2023-06-04T07:21:49;8.55;;;1.30;;
35444;SDS011;21562;49.476;6.086;2023-06-04T07:24:15;3.15;;;1.38;;
35444;SDS011;21562;49.476;6.086;2023-06-04T07:26:41;5.95;;;1.38;;
35444;SDS011;21562;49.476;6.086;2023-06-04T07:29:06;3.78;;;1.30;;
35444;SDS011;21562;49.476;6.086;2023-06-04T07:31:32;2.97;;;1.42;;
35444;SDS011;21562;49.476;6.086;2023-06-04T07:33:58;2.58;;;1.38;;
35444;SDS011;21562;49.476;6.086;2023-06-04T07:36:23;2.22;;;1.27;;
35444;SDS011;21562;49.476;6.086;2023-06-04T07:38:49;9.68;;;1.48;;
35444;SDS011;21562;49.476;6.086;2023-06-04T07:41:15;9.05;;;1.38;;
35444;SDS011;21562;49.476;6.086;2023-06-04T07:43:40;7.50;;;1.98;;
35444;SDS011;21562;49.476;6.086;2023-06-04T07:46:08;4.55;;;1.80;;
35444;SDS011;21562;49.476;6.086;2023-06-04T07:48:35;1.70;;;1.20;;
35444;SDS011;21562;49.476;6.086;2023-06-04T07:51:01;6.03;;;1.60;;
35444;SDS011;21562;49.476;6.086;2023-06-04T07:53:28;2.72;;;1.33;;
35444;SDS011;21562;49.476;6.086;2023-06-04T07:55:54;2.88;;;1.33;;
35444;SDS011;21562;49.476;6.086;2023-06-04T07:58:20;4.55;;;1.42;;
35444;SDS011;21562;49.476;6.086;2023-06-04T08:00:46;3.08;;;1.20;;
35444;SDS011;21562;49.476;6.086;2023-06-04T08:03:12;3.95;;;1.38;;
35444;SDS011;21562;49.476;6.086;2023-06-04T08:05:37;5.15;;;1.10;;
35444;SDS011;21562;49.476;6.086;2023-06-04T08:08:03;4.10;;;1.13;;
35444;SDS011;21562;49.476;6.086;2023-06-04T08:10:29;6.70;;;1.50;;
35444;SDS011;21562;49.476;6.086;2023-06-04T08:12:55;3.60;;;1.52;;
35444;SDS011;21562;49.476;6.086;2023-06-04T08:15:21;7.90;;;1.55;;
35444;SDS011;21562;49.476;6.086;2023-06-04T08:17:47;6.47;;;1.25;;
35444;SDS011;21562;49.476;6.086;2023-06-04T08:20:12;4.30;;;1.50;;
35444;SDS011;21562;49.476;6.086;2023-06-04T08:22:38;2.67;;;1.60;;
35444;SDS011;21562;49.476;6.086;2023-06-04T08:25:04;5.28;;;1.40;;
35444;SDS011;21562;49.476;6.086;2023-06-04T08:27:30;5.90;;;1.63;;
35444;SDS011;21562;49.476;6.086;2023-06-04T08:29:56;4.03;;;1.40;;
35444;SDS011;21562;49.476;6.086;2023-06-04T08:32:22;4.65;;;1.50;;
35444;SDS011;21562;49.476;6.086;2023-06-04T08:34:48;5.18;;;1.70;;
35444;SDS011;21562;49.476;6.086;2023-06-04T08:37:15;5.70;;;1.40;;
35444;SDS011;21562;49.476;6.086;2023-06-04T08:39:41;6.85;;;1.52;;
35444;SDS011;21562;49.476;6.086;2023-06-04T08:42:07;4.65;;;1.48;;
35444;SDS011;21562;49.476;6.086;2023-06-04T08:44:40;3.20;;;1.40;;
35444;SDS011;21562;49.476;6.086;2023-06-04T08:47:08;4.30;;;1.50;;
35444;SDS011;21562;49.476;6.086;2023-06-04T08:49:40;7.63;;;1.60;;
35444;SDS011;21562;49.476;6.086;2023-06-04T08:52:09;4.80;;;1.50;;
35444;SDS011;21562;49.476;6.086;2023-06-04T08:54:35;3.20;;;1.20;;
35444;SDS011;21562;49.476;6.086;2023-06-04T08:57:02;5.97;;;1.45;;
35444;SDS011;21562;49.476;6.086;2023-06-04T08:59:29;4.70;;;1.50;;
35444;SDS011;21562;49.476;6.086;2023-06-04T09:01:55;2.65;;;1.30;;
35444;SDS011;21562;49.476;6.086;2023-06-04T09:04:21;6.32;;;1.50;;
35444;SDS011;21562;49.476;6.086;2023-06-04T09:06:47;4.18;;;1.42;;
35444;SDS011;21562;49.476;6.086;2023-06-04T09:09:13;4.65;;;1.50;;
35444;SDS011;21562;49.476;6.086;2023-06-04T09:11:47;3.78;;;1.30;;
35444;SDS011;21562;49.476;6.086;2023-06-04T09:14:14;6.60;;;1.50;;
35444;SDS011;21562;49.476;6.086;2023-06-04T09:16:44;3.28;;;1.67;;
35444;SDS011;21562;49.476;6.086;2023-06-04T09:19:10;6.15;;;1.58;;
35444;SDS011;21562;49.476;6.086;2023-06-04T09:21:49;5.30;;;1.52;;
35444;SDS011;21562;49.476;6.086;2023-06-04T09:24:18;2.70;;;1.70;;
35444;SDS011;21562;49.476;6.086;2023-06-04T09:26:45;4.55;;;1.52;;
35444;SDS011;21562;49.476;6.086;2023-06-04T09:29:11;2.75;;;1.58;;
35444;SDS011;21562;49.476;6.086;2023-06-04T09:31:37;6.38;;;1.60;;
35444;SDS011;21562;49.476;6.086;2023-06-04T09:34:04;2.67;;;1.40;;
35444;SDS011;21562;49.476;6.086;2023-06-04T09:36:31;3.47;;;1.45;;
35444;SDS011;21562;49.476;6.086;2023-06-04T09:39:00;6.35;;;1.70;;
35444;SDS011;21562;49.476;6.086;2023-06-04T09:41:28;3.33;;;1.80;;
35444;SDS011;21562;49.476;6.086;2023-06-04T09:44:03;2.20;;;1.33;;
35444;SDS011;21562;49.476;6.086;2023-06-04T09:46:30;3.15;;;1.30;;
35444;SDS011;21562;49.476;6.086;2023-06-04T09:49:03;6.93;;;1.98;;
35444;SDS011;21562;49.476;6.086;2023-06-04T09:51:30;4.75;;;1.60;;
35444;SDS011;21562;49.476;6.086;2023-06-04T09:53:57;1.42;;;1.05;;
35444;SDS011;21562;49.476;6.086;2023-06-04T09:56:24;9.18;;;1.70;;
35444;SDS011;21562;49.476;6.086;2023-06-04T09:58:54;4.65;;;1.50;;
35444;SDS011;21562;49.476;6.086;2023-06-04T10:01:23;7.78;;;1.67;;
35444;SDS011;21562;49.476;6.086;2023-06-04T10:03:51;5.90;;;1.55;;
35444;SDS011;21562;49.476;6.086;2023-06-04T10:06:18;4.95;;;1.60;;
35444;SDS011;21562;49.476;6.086;2023-06-04T10:08:48;4.63;;;1.80;;
35444;SDS011;21562;49.476;6.086;2023-06-04T10:11:16;5.25;;;1.80;;
35444;SDS011;21562;49.476;6.086;2023-06-04T10:13:53;3.38;;;1.63;;
35444;SDS011;21562;49.476;6.086;2023-06-04T10:16:26;3.25;;;1.63;;
35444;SDS011;21562;49.476;6.086;2023-06-04T10:18:52;6.25;;;2.15;;
35444;SDS011;21562;49.476;6.086;2023-06-04T10:21:19;4.05;;;1.40;;
35444;SDS011;21562;49.476;6.086;2023-06-04T10:23:46;6.80;;;1.98;;
35444;SDS011;21562;49.476;6.086;2023-06-04T10:26:16;6.30;;;1.60;;
35444;SDS011;21562;49.476;6.086;2023-06-04T10:28:42;4.00;;;1.83;;
35444;SDS011;21562;49.476;6.086;2023-06-04T10:31:08;4.50;;;1.50;;
35444;SDS011;21562;49.476;6.086;2023-06-04T10:33:35;6.25;;;2.15;;
35444;SDS011;21562;49.476;6.086;2023-06-04T10:36:17;12.93;;;2.28;;
35444;SDS011;21562;49.476;6.086;2023-06-04T10:38:48;3.42;;;1.70;;
35444;SDS011;21562;49.476;6.086;2023-06-04T10:41:14;7.43;;;1.77;;
35444;SDS011;21562;49.476;6.086;2023-06-04T10:43:50;6.30;;;1.90;;
35444;SDS011;21562;49.476;6.086;2023-06-04T10:46:18;8.60;;;1.90;;
35444;SDS011;21562;49.476;6.086;2023-06-04T10:48:53;5.85;;;2.03;;
35444;SDS011;21562;49.476;6.086;2023-06-04T10:51:29;5.55;;;2.30;;
35444;SDS011;21562;49.476;6.086;2023-06-04T10:53:59;5.50;;;1.85;;
35444;SDS011;21562;49.476;6.086;2023-06-04T10:56:29;5.88;;;1.40;;
35444;SDS011;21562;49.476;6.086;2023-06-04T10:59:00;3.20;;;1.85;;
35444;SDS011;21562;49.476;6.086;2023-06-04T11:01:37;2.85;;;1.70;;
35444;SDS011;21562;49.476;6.086;2023-06-04T11:04:03;7.20;;;2.40;;
35444;SDS011;21562;49.476;6.086;2023-06-04T11:06:29;4.32;;;1.83;;
35444;SDS011;21562;49.476;6.086;2023-06-04T11:09:04;10.52;;;2.10;;
35444;SDS011;21562;49.476;6.086;2023-06-04T11:11:33;6.35;;;1.92;;
35444;SDS011;21562;49.476;6.086;2023-06-04T11:14:11;5.60;;;2.00;;
35444;SDS011;21562;49.476;6.086;2023-06-04T11:16:42;2.35;;;1.60;;
35444;SDS011;21562;49.476;6.086;2023-06-04T11:19:08;3.80;;;2.13;;
35444;SDS011;21562;49.476;6.086;2023-06-04T11:21:34;4.40;;;1.70;;
35444;SDS011;21562;49.476;6.086;2023-06-04T11:24:01;6.35;;;1.67;;
35444;SDS011;21562;49.476;6.086;2023-06-04T11:26:32;5.15;;;1.98;;
35444;SDS011;21562;49.476;6.086;2023-06-04T11:28:59;3.72;;;1.92;;
35444;SDS011;21562;49.476;6.086;2023-06-04T11:31:25;9.13;;;2.10;;
35444;SDS011;21562;49.476;6.086;2023-06-04T11:33:51;4.43;;;1.77;;
35444;SDS011;21562;49.476;6.086;2023-06-04T11:36:23;5.07;;;2.25;;
35444;SDS011;21562;49.476;6.086;2023-06-04T11:38:59;5.65;;;2.22;;
35444;SDS011;21562;49.476;6.086;2023-06-04T11:43:54;3.63;;;1.45;;
35444;SDS011;21562;49.476;6.086;2023-06-04T11:46:21;7.75;;;2.30;;
35444;SDS011;21562;49.476;6.086;2023-06-04T11:48:48;4.22;;;1.80;;
35444;SDS011;21562;49.476;6.086;2023-06-04T11:51:16;6.15;;;1.70;;
35444;SDS011;21562;49.476;6.086;2023-06-04T11:53:42;5.75;;;1.73;;
35444;SDS011;21562;49.476;6.086;2023-06-04T11:56:08;4.50;;;1.70;;
35444;SDS011;21562;49.476;6.086;2023-06-04T11:58:34;8.98;;;1.90;;
35444;SDS011;21562;49.476;6.086;2023-06-04T12:01:00;6.82;;;2.22;;
35444;SDS011;21562;49.476;6.086;2023-06-04T12:03:59;11.80;;;2.67;;
35444;SDS011;21562;49.476;6.086;2023-06-04T12:06:18;5.38;;;2.70;;
35444;SDS011;21562;49.476;6.086;2023-06-04T12:13:52;3.50;;;2.33;;
35444;SDS011;21562;49.476;6.086;2023-06-04T12:16:19;7.20;;;2.10;;
35444;SDS011;21562;49.476;6.086;2023-06-04T12:18:45;6.30;;;2.22;;
35444;SDS011;21562;49.476;6.086;2023-06-04T12:21:24;3.47;;;2.20;;
35444;SDS011;21562;49.476;6.086;2023-06-04T12:24:14;6.05;;;2.10;;
35444;SDS011;21562;49.476;6.086;2023-06-04T12:26:40;2.63;;;2.08;;
35444;SDS011;21562;49.476;6.086;2023-06-04T12:29:07;4.75;;;2.35;;
35444;SDS011;21562;49.476;6.086;2023-06-04T12:31:38;4.32;;;2.05;;
35444;SDS011;21562;49.476;6.086;2023-06-04T12:34:15;7.10;;;2.33;;
35444;SDS011;21562;49.476;6.086;2023-06-04T12:36:42;6.45;;;2.67;;
35444;SDS011;21562;49.476;6.086;2023-06-04T12:39:08;5.82;;;2.60;;
35444;SDS011;21562;49.476;6.086;2023-06-04T12:41:34;4.63;;;2.20;;
35444;SDS011;21562;49.476;6.086;2023-06-04T12:44:00;2.78;;;2.03;;
35444;SDS011;21562;49.476;6.086;2023-06-04T12:46:26;4.82;;;2.13;;
35444;SDS011;21562;49.476;6.086;2023-06-04T12:48:52;6.38;;;2.22;;
35444;SDS011;21562;49.476;6.086;2023-06-04T12:51:19;6.43;;;2.90;;
35444;SDS011;21562;49.476;6.086;2023-06-04T12:53:46;3.08;;;2.30;;
35444;SDS011;21562;49.476;6.086;2023-06-04T12:56:12;3.92;;;2.25;;
35444;SDS011;21562;49.476;6.086;2023-06-04T12:58:38;3.70;;;2.05;;
35444;SDS011;21562;49.476;6.086;2023-06-04T13:01:05;4.50;;;2.58;;
35444;SDS011;21562;49.476;6.086;2023-06-04T13:03:30;4.85;;;2.50;;
35444;SDS011;21562;49.476;6.086;2023-06-04T13:05:56;4.82;;;2.00;;
35444;SDS011;21562;49.476;6.086;2023-06-04T13:08:23;4.50;;;2.63;;
35444;SDS011;21562;49.476;6.086;2023-06-04T13:10:50;6.70;;;2.60;;
35444;SDS011;21562;49.476;6.086;2023-06-04T13:13:16;4.03;;;2.65;;
35444;SDS011;21562;49.476;6.086;2023-06-04T13:15:43;6.35;;;3.20;;
35444;SDS011;21562;49.476;6.086;2023-06-04T13:18:09;4.28;;;2.97;;
35444;SDS011;21562;49.476;6.086;2023-06-04T13:20:35;8.13;;;2.47;;
35444;SDS011;21562;49.476;6.086;2023-06-04T13:23:01;4.22;;;2.13;;
35444;SDS011;21562;49.476;6.086;2023-06-04T13:25:27;3.05;;;2.40;;
35444;SDS011;21562;49.476;6.086;2023-06-04T13:27:58;4.28;;;2.50;;
35444;SDS011;21562;49.476;6.086;2023-06-04T13:30:34;3.78;;;2.30;;
35444;SDS011;21562;49.476;6.086;2023-06-04T13:33:01;6.75;;;2.13;;
35444;SDS011;21562;49.476;6.086;2023-06-04T13:35:27;4.05;;;2.33;;
35444;SDS011;21562;49.476;6.086;2023-06-04T13:37:53;5.97;;;2.63;;
35444;SDS011;21562;49.476;6.086;2023-06-04T13:40:19;12.52;;;2.83;;
35444;SDS011;21562;49.476;6.086;2023-06-04T13:42:45;6.18;;;2.70;;
35444;SDS011;21562;49.476;6.086;2023-06-04T13:45:11;6.43;;;2.65;;
35444;SDS011;21562;49.476;6.086;2023-06-04T13:47:37;3.08;;;2.28;;
35444;SDS011;21562;49.476;6.086;2023-06-04T13:50:02;6.20;;;2.60;;
35444;SDS011;21562;49.476;6.086;2023-06-04T13:52:29;6.93;;;2.60;;
35444;SDS011;21562;49.476;6.086;2023-06-04T13:54:55;4.13;;;2.38;;
35444;SDS011;21562;49.476;6.086;2023-06-04T13:57:21;4.60;;;2.45;;
35444;SDS011;21562;49.476;6.086;2023-06-04T13:59:48;4.35;;;2.38;;
35444;SDS011;21562;49.476;6.086;2023-06-04T14:02:14;3.10;;;1.95;;
35444;SDS011;21562;49.476;6.086;2023-06-04T14:04:40;5.53;;;2.45;;
35444;SDS011;21562;49.476;6.086;2023-06-04T14:07:05;5.20;;;2.13;;
35444;SDS011;21562;49.476;6.086;2023-06-04T14:09:31;5.20;;;2.55;;
35444;SDS011;21562;49.476;6.086;2023-06-04T14:11:58;4.15;;;2.17;;
35444;SDS011;21562;49.476;6.086;2023-06-04T14:14:23;8.00;;;2.67;;
35444;SDS011;21562;49.476;6.086;2023-06-04T14:16:49;10.90;;;2.25;;
35444;SDS011;21562;49.476;6.086;2023-06-04T14:19:15;7.07;;;2.47;;
35444;SDS011;21562;49.476;6.086;2023-06-04T14:21:44;5.53;;;1.90;;
35444;SDS011;21562;49.476;6.086;2023-06-04T14:24:10;7.88;;;2.70;;
35444;SDS011;21562;49.476;6.086;2023-06-04T14:26:36;4.57;;;2.10;;
35444;SDS011;21562;49.476;6.086;2023-06-04T14:29:02;9.23;;;2.30;;
35444;SDS011;21562;49.476;6.086;2023-06-04T14:31:28;5.47;;;2.60;;
35444;SDS011;21562;49.476;6.086;2023-06-04T14:33:54;6.38;;;3.97;;
35444;SDS011;21562;49.476;6.086;2023-06-04T14:36:20;4.78;;;2.42;;
35444;SDS011;21562;49.476;6.086;2023-06-04T14:38:46;13.02;;;2.70;;
35444;SDS011;21562;49.476;6.086;2023-06-04T14:41:13;6.95;;;2.50;;
35444;SDS011;21562;49.476;6.086;2023-06-04T14:43:39;7.20;;;2.83;;
35444;SDS011;21562;49.476;6.086;2023-06-04T14:46:05;4.97;;;2.20;;
35444;SDS011;21562;49.476;6.086;2023-06-04T14:48:30;4.15;;;2.05;;
35444;SDS011;21562;49.476;6.086;2023-06-04T14:50:56;5.65;;;2.03;;
35444;SDS011;21562;49.476;6.086;2023-06-04T14:53:22;7.70;;;2.40;;
35444;SDS011;21562;49.476;6.086;2023-06-04T14:55:47;4.22;;;1.98;;
35444;SDS011;21562;49.476;6.086;2023-06-04T14:58:14;3.53;;;2.30;;